Corpus Christi, TX

6:06 PM CDT on July 30, 2015 (GMT -0500)
Texas State Aquarium | | Change Station
CLOSE
Current Station
Personal Weather Station
Location: Corpus Christi, TX
Elevation: 36 ft
Nearby Weather Stations

Elev 36 ft 27.81 °N, 97.39 °W | Updated 13 seconds ago

Partly Cloudy
Partly Cloudy
88.4 °F
Feels Like 108 °F
N
8.5
Wind Variable Wind from East
Gusts 0.0 mph

Today
High -- | Low -- °F
--% Chance of Precip.
Yesterday
High -- | Low -- °F
Precip. -- in
6:51 AM 8:20 PM
Full, 100% visible
Pressure 29.97 in
Visibility 10.0 miles
Clouds Few 4200 ft
Mostly Cloudy 25000 ft
Heat Index 108 °F
Dew Point 82 °F
Humidity 80%
Rainfall 0.00 in
Snow Depth Not available.
UV 0.0 out of 12
Pollen 3.60 out of 12
Air Quality Not available.
Flu Activity Not available.
METAR KCRP 302251Z 12012KT 10SM FEW042 BKN250 36/18 A2997 RMK AO2 SLP149 CB DSNT NE T03610178

More Conditions Fewer Conditions

Pressure 29.97 in
Visibility 10.0 miles
Clouds Few 4200 ft
Mostly Cloudy 25000 ft
Heat Index 108 °F
Dew Point 82 °F
Humidity 80%
Rainfall 0.00 in
Snow Depth Not available.
UV 0.0 out of 12
Pollen 3.60 out of 12
Air Quality Not available.
Flu Activity Not available.
METAR KCRP 302251Z 12012KT 10SM FEW042 BKN250 36/18 A2997 RMK AO2 SLP149 CB DSNT NE T03610178

More Conditions Fewer Conditions

10-Day Weather Forecast

×

Almanac

Astronomy

Jul. 30, 2015 Rise Set
Actual Time
Civil Twilight
Nautical Twilight
Astronomical Twilight
Moon
Length of Visible Light
Length of Day
Tomorrow will be .
, % of the Moon is Illuminated

Today's Extremes

State Highs State Lows

Community

WunderPhotos

Upload Photos

1,842,532 photos uploaded!

WunderBlogs® & News

Nearby

Air Quality

  Air Quality AQ Index Pollutant
Not available.

Snow Depth

Station Depth Elevation

Earthquake Activity

City Distance Mag. Time & Date
Minimum magnitude displayed is 2.5.

Coastal Water Temperatures

Place Temperature

Stations

Nearby Weather Stations

Station Location Temp. Windchill Dew Point Humidity Wind Precip. Elev Updated Type